CheckWX is a tool to help pilots better visualize weather data.  It is not intended as a substitute for an official pre-flight weather briefing.

22:52:53 UTC

KGGG TAF
East Texas Regional Airport
Longview, Texas, USA
KGGG 072336Z 0800/0824 19008KT P6SM VCSH BKN030 FM080200 17006KT P6SM BKN100 FM080700 18006KT P6SM VCTS BKN015CB FM081500 22008KT P6SM BKN035

Jul-8@
00:00 UTC

Jul-8 @ 00:00 UTC

Jul-8@
02:00 UTC

Jul-8 @ 02:00 UTC

TAF KGGG 072336Z 0800/0824 19008KT P6SM VCSH BKN030

Expired

Wind
  • 190° at 8 KTS
Conditions
Area Showers
Cloud Levels
  • Broken at 3,000' AGL

Jul-8@
02:00 UTC

Jul-8 @ 02:00 UTC

Jul-8@
07:00 UTC

Jul-8 @ 07:00 UTC

FM080200 17006KT P6SM BKN100

Expired

Wind
  • 170° at 6 KTS
Cloud Levels
  • Broken at 10,000' AGL

Jul-8@
07:00 UTC

Jul-8 @ 07:00 UTC

Jul-8@
15:00 UTC

Jul-8 @ 15:00 UTC

FM080700 18006KT P6SM VCTS BKN015CB

Expired

Wind
  • 180° at 6 KTS
Conditions
Area Thunderstorm
Cloud Levels
  • Broken at 1,500' AGL

Jul-8@
15:00 UTC

Jul-8 @ 15:00 UTC

Jul-9@
00:00 UTC

Jul-9 @ 00:00 UTC

FM081500 22008KT P6SM BKN035

From

From Standard forecast or significant change

Wind
  • 220° at 8 KTS
Cloud Levels
  • Broken at 3,500' AGL